TimeCDT,TemperatureF,Dew PointF,Humidity,Sea Level PressureIn,VisibilityMPH,Wind Direction,Wind SpeedMPH,Gust SpeedMPH,PrecipitationIn,Events,Conditions,WindDirDegrees,DateUTC
12:53 AM,60.1,53.1,78,30.06,10.0,North,5.8,-,N/A,,Clear,10,2013-07-27 05:53:00
1:53 AM,60.1,52.0,75,30.06,10.0,North,3.5,-,N/A,,Clear,350,2013-07-27 06:53:00
2:53 AM,57.9,52.0,81,30.06,10.0,NNW,5.8,-,N/A,,Clear,340,2013-07-27 07:53:00
3:53 AM,57.0,51.1,81,30.05,10.0,NNW,3.5,-,N/A,,Clear,340,2013-07-27 08:53:00
4:53 AM,57.0,51.1,81,30.05,10.0,NNW,5.8,-,N/A,,Clear,340,2013-07-27 09:53:00
5:53 AM,55.0,51.1,86,30.06,10.0,NNW,6.9,-,N/A,,Partly Cloudy,340,2013-07-27 10:53:00
6:53 AM,57.0,52.0,83,30.08,10.0,North,5.8,-,N/A,,Scattered Clouds,360,2013-07-27 11:53:00
7:53 AM,61.0,54.0,78,30.10,10.0,NW,4.6,-,0.00,,Scattered Clouds,310,2013-07-27 12:53:00
8:53 AM,64.9,53.1,65,30.11,10.0,NNW,5.8,-,N/A,,Mostly Cloudy,340,2013-07-27 13:53:00
9:53 AM,68.0,52.0,56,30.09,10.0,North,4.6,-,N/A,,Scattered Clouds,360,2013-07-27 14:53:00
10:53 AM,72.0,51.1,48,30.09,10.0,North,6.9,-,N/A,,Scattered Clouds,10,2013-07-27 15:53:00
11:53 AM,71.1,48.0,44,30.07,10.0,North,10.4,-,N/A,,Mostly Cloudy,350,2013-07-27 16:53:00
12:53 PM,75.0,50.0,41,30.06,10.0,North,10.4,17.3,N/A,,Scattered Clouds,350,2013-07-27 17:53:00
1:53 PM,75.9,48.0,37,30.04,10.0,North,12.7,18.4,N/A,,Scattered Clouds,360,2013-07-27 18:53:00
2:53 PM,77.0,48.0,36,30.02,10.0,NW,8.1,-,N/A,,Scattered Clouds,320,2013-07-27 19:53:00
3:53 PM,77.0,44.1,31,30.02,10.0,NNW,11.5,-,N/A,,Scattered Clouds,340,2013-07-27 20:53:00
4:53 PM,75.9,45.0,33,30.01,10.0,North,8.1,-,N/A,,Mostly Cloudy,360,2013-07-27 21:53:00
5:53 PM,73.0,44.1,35,30.00,10.0,NNW,8.1,-,N/A,,Mostly Cloudy,330,2013-07-27 22:53:00
6:53 PM,75.0,45.0,34,29.99,10.0,North,8.1,-,N/A,,Mostly Cloudy,350,2013-07-27 23:53:00
7:53 PM,71.1,48.0,44,30.00,10.0,NNW,5.8,-,N/A,,Partly Cloudy,340,2013-07-28 00:53:00
8:53 PM,64.9,46.0,50,29.99,10.0,North,6.9,-,N/A,,Partly Cloudy,350,2013-07-28 01:53:00
9:53 PM,63.0,48.0,58,30.01,10.0,North,4.6,-,N/A,,Clear,10,2013-07-28 02:53:00
10:53 PM,62.1,46.9,58,30.02,10.0,NNE,4.6,-,N/A,,Clear,20,2013-07-28 03:53:00
11:53 PM,62.1,46.9,58,30.03,10.0,NNE,3.5,-,N/A,,Clear,30,2013-07-28 04:53:00